Date,TemperatureHighF,TemperatureAvgF,TemperatureLowF,DewpointHighF,DewpointAvgF,DewpointLowF,HumidityHigh,HumidityAvg,HumidityLow,PressureMaxIn,PressureMinIn,WindSpeedMaxMPH,WindSpeedAvgMPH,GustSpeedMaxMPH,PrecipitationSumIn
2013-9-1,79.9,71.7,67.3,75.0,68.6,64.9,92,90,83,29.64,29.55,7,2,0,0.00
2013-9-2,80.4,71.8,66.4,74.2,68.3,63.7,92,89,77,29.65,29.56,3,1,0,0.00
2013-9-3,80.2,71.0,62.1,68.7,65.1,59.7,92,82,64,29.71,29.57,6,1,0,0.06
2013-9-4,77.7,70.5,63.7,69.6,65.6,61.0,91,85,69,29.82,29.70,3,0,0,0.00
2013-9-5,80.4,70.9,64.0,67.9,62.3,54.2,91,76,42,29.85,29.79,3,1,0,0.00
2013-9-6,75.6,67.9,60.1,65.6,61.2,56.8,90,80,63,29.92,29.80,5,1,0,0.00
2013-9-7,75.2,67.2,59.5,67.7,62.2,56.9,91,84,70,29.86,29.71,5,1,0,0.00
2013-9-8,79.5,70.0,63.5,70.4,65.7,60.8,91,86,68,29.73,29.66,3,0,0,0.03
2013-9-9,82.0,70.7,63.7,69.9,65.6,61.0,91,85,66,29.87,29.73,3,0,0,0.00
2013-9-10,80.6,71.1,63.1,70.4,65.7,60.6,92,84,66,29.96,29.86,4,0,0,0.00
2013-9-11,81.0,71.0,63.7,71.3,66.3,61.0,92,85,70,29.94,29.81,3,1,0,0.00
2013-9-12,82.2,71.6,66.6,70.4,67.0,63.7,91,86,64,29.81,29.58,5,1,0,0.00
2013-9-13,75.9,67.9,60.1,64.3,59.6,52.8,90,76,55,29.62,29.52,6,2,0,0.00
2013-9-14,71.1,60.9,53.6,58.6,53.5,49.8,90,78,57,29.82,29.62,6,1,0,0.00
2013-9-15,71.4,62.6,55.4,64.8,58.3,52.8,91,86,71,29.92,29.82,5,0,0,0.00
2013-9-16,77.7,67.3,60.1,65.1,61.1,57.5,92,82,58,29.87,29.78,3,0,0,0.00
2013-9-17,66.4,61.6,58.3,60.7,56.5,53.0,90,84,74,30.01,29.87,6,3,0,0.00
2013-9-18,65.1,59.9,55.2,59.2,56.4,52.3,91,88,78,29.99,29.87,4,1,0,0.00
2013-9-19,73.9,64.0,56.7,66.4,60.5,54.2,92,89,77,29.90,29.80,4,1,0,0.00
2013-9-20,77.7,68.3,60.8,68.0,63.6,58.5,92,85,68,29.81,29.64,5,1,0,0.00
2013-9-21,66.7,63.6,59.4,63.4,61.0,57.1,92,91,89,29.65,29.39,16,2,0,2.13
2013-9-22,71.6,61.5,55.4,58.2,55.3,52.8,92,81,55,29.62,29.44,4,1,0,0.00
2013-9-23,67.1,60.9,55.9,60.9,56.2,52.9,90,85,73,29.76,29.62,3,0,0,0.00
2013-9-24,68.5,61.7,54.1,62.5,57.8,51.5,91,87,76,29.77,29.64,3,0,0,0.00
2013-9-25,61.0,59.1,57.6,58.0,56.9,55.6,93,92,90,29.64,29.57,3,0,0,2.03
2013-9-26,66.7,59.8,54.9,60.3,56.2,52.0,93,88,75,29.75,29.59,4,1,0,0.00
2013-9-27,70.7,59.4,51.6,60.5,54.5,49.1,92,84,67,29.89,29.76,4,1,0,0.00
2013-9-28,64.8,58.3,54.5,57.2,54.2,51.9,91,87,73,29.96,29.85,4,1,0,0.00
2013-9-29,67.6,57.3,50.0,58.8,53.1,47.7,92,86,68,29.88,29.74,3,0,0,0.00
2013-9-30,68.2,59.3,52.2,60.8,55.4,49.9,92,87,74,29.80,29.71,3,0,0,0.00